createdAt,value
2019-06-07T00:01:40.327Z,100.00
2019-06-07T00:04:30.170Z,100.00
2019-06-07T00:07:22.091Z,100.00
2019-06-07T00:13:18.750Z,100.00
2019-06-07T00:15:58.967Z,100.00
2019-06-07T00:18:48.813Z,100.00
2019-06-07T00:22:13.455Z,100.00
2019-06-07T00:24:18.637Z,100.00
2019-06-07T00:26:58.892Z,100.00
2019-06-07T00:29:37.397Z,100.00
2019-06-07T00:32:27.235Z,100.00
2019-06-07T00:35:20.231Z,100.00
2019-06-07T00:38:00.240Z,100.00
2019-06-07T00:40:50.045Z,100.00
2019-06-07T00:43:39.935Z,100.00
2019-06-07T00:46:14.083Z,100.00
2019-06-07T00:48:54.861Z,100.00
2019-06-07T00:51:50.358Z,100.00
2019-06-07T00:54:29.944Z,100.00
2019-06-07T00:57:21.513Z,100.00
2019-06-07T01:00:03.044Z,100.00
2019-06-07T01:02:52.908Z,100.00
2019-06-07T01:05:42.716Z,100.00
2019-06-07T01:08:32.521Z,100.00
2019-06-07T01:11:25.716Z,100.00
2019-06-07T01:14:14.549Z,100.00
2019-06-07T01:17:13.505Z,99.81
2019-06-07T01:19:40.797Z,99.93
2019-06-07T01:22:11.452Z,99.69
2019-06-07T01:25:01.263Z,99.76
2019-06-07T01:27:51.047Z,100.00
2019-06-07T01:30:40.875Z,100.00
2019-06-07T01:33:49.933Z,100.00
2019-06-07T01:36:24.394Z,100.00
2019-06-07T01:39:06.223Z,100.00
2019-06-07T01:41:55.998Z,99.21
2019-06-07T01:44:45.791Z,98.45
2019-06-07T01:47:35.615Z,99.49
2019-06-07T01:50:27.157Z,99.58
2019-06-07T01:53:08.340Z,98.44
2019-06-07T01:55:58.126Z,96.81
2019-06-07T01:58:48.087Z,96.22
2019-06-07T02:01:37.931Z,95.98
2019-06-07T02:04:32.420Z,96.25
2019-06-07T02:07:11.167Z,93.94
2019-06-07T02:10:00.983Z,93.51
2019-06-07T02:12:50.746Z,93.03
2019-06-07T02:15:40.547Z,92.64
2019-06-07T02:18:34.728Z,93.07
2019-06-07T02:21:13.134Z,93.11
2019-06-07T02:24:02.929Z,93.47
2019-06-07T02:26:52.725Z,92.71
2019-06-07T02:29:42.543Z,93.07
2019-06-07T02:32:36.597Z,93.16
2019-06-07T02:35:40.499Z,93.00
2019-06-07T02:38:17.434Z,92.77
2019-06-07T02:41:07.286Z,92.09
2019-06-07T02:44:16.009Z,92.40
2019-06-07T02:47:05.875Z,92.95
2019-06-07T02:49:55.762Z,92.35
2019-06-07T02:52:45.667Z,91.52
2019-06-07T02:56:26.013Z,91.78
2019-06-07T02:58:20.513Z,91.37
2019-06-07T03:01:10.386Z,91.08
2019-06-07T03:04:00.302Z,90.59
2019-06-07T03:12:56.919Z,91.17
2019-06-07T03:15:50.243Z,91.04
2019-06-07T03:18:48.871Z,91.02
2019-06-07T03:21:41.860Z,91.04
2019-06-07T03:24:19.097Z,91.48
2019-06-07T03:27:36.291Z,91.85
2019-06-07T03:29:53.772Z,91.98
2019-06-07T03:33:02.443Z,91.63
2019-06-07T03:35:52.260Z,91.96
2019-06-07T03:38:42.120Z,91.42
2019-06-07T03:41:40.056Z,91.75
2019-06-07T03:44:14.838Z,91.41
2019-06-07T03:47:04.694Z,91.28
2019-06-07T03:49:54.524Z,91.39
2019-06-07T03:52:44.319Z,90.43
2019-06-07T03:55:37.772Z,89.67
2019-06-07T04:00:55.128Z,89.79
2019-06-07T04:03:51.453Z,89.34
2019-06-07T04:06:41.947Z,88.67
2019-06-07T04:09:14.514Z,88.86
2019-06-07T04:12:04.315Z,88.96
2019-06-07T04:14:54.177Z,88.61
2019-06-07T04:18:00.712Z,88.02
2019-06-07T04:20:29.356Z,87.84
2019-06-07T04:23:25.104Z,87.30
2019-06-07T04:25:43.425Z,86.70
2019-06-07T04:29:24.878Z,86.42
2019-06-07T04:31:10.935Z,86.18
2019-06-07T04:34:00.793Z,86.28
2019-06-07T04:45:46.235Z,84.77
2019-06-07T04:51:36.080Z,84.51
2019-06-07T04:54:25.481Z,83.87
2019-06-07T04:57:15.407Z,83.76
2019-06-07T05:00:32.907Z,83.73
2019-06-07T05:02:43.829Z,83.72
2019-06-07T05:05:34.518Z,83.32
2019-06-07T05:08:28.353Z,82.96
2019-06-07T05:11:08.812Z,82.96
2019-06-07T05:13:59.217Z,83.09
2019-06-07T05:16:34.735Z,82.93
2019-06-07T05:19:22.176Z,82.60
2019-06-07T05:22:03.463Z,82.52
2019-06-07T05:24:44.163Z,82.53
2019-06-07T05:27:37.925Z,82.76
2019-06-07T05:33:15.051Z,82.30
2019-06-07T05:36:04.966Z,82.69
2019-06-07T05:38:54.826Z,82.04
2019-06-07T05:41:44.670Z,82.27
2019-06-07T05:44:36.369Z,81.41
2019-06-07T05:47:17.815Z,81.43
2019-06-07T05:50:38.037Z,81.33
2019-06-07T05:52:50.816Z,80.75
2019-06-07T05:55:44.170Z,80.72
2019-06-07T05:58:24.430Z,79.92
2019-06-07T06:01:42.024Z,79.21
2019-06-07T06:04:05.822Z,78.77
2019-06-07T06:06:55.680Z,78.26
2019-06-07T06:09:46.108Z,77.43
2019-06-07T06:12:35.255Z,76.40
2019-06-07T06:15:06.203Z,75.97
2019-06-07T06:17:57.018Z,74.95
2019-06-07T06:21:00.889Z,74.13
2019-06-07T06:26:52.173Z,72.09
2019-06-07T06:32:41.300Z,71.40
2019-06-07T06:35:06.224Z,70.08
2019-06-07T06:37:56.060Z,71.59
2019-06-07T06:40:49.048Z,72.33
2019-06-07T06:43:23.578Z,72.35
2019-06-07T06:46:13.414Z,72.95
2019-06-07T06:49:03.234Z,73.22
2019-06-07T06:51:53.866Z,71.83
2019-06-07T06:54:42.999Z,71.25
2019-06-07T06:57:19.653Z,69.54
2019-06-07T06:59:58.020Z,70.53
2019-06-07T07:03:39.300Z,71.38
2019-06-07T07:05:30.692Z,70.58
2019-06-07T07:08:01.259Z,69.52
2019-06-07T07:10:53.161Z,69.06
2019-06-07T07:13:28.686Z,68.08
2019-06-07T07:16:18.598Z,68.64
2019-06-07T07:19:08.425Z,68.91
2019-06-07T07:21:58.313Z,68.83
2019-06-07T07:27:53.828Z,70.82
2019-06-07T07:34:23.802Z,70.68
2019-06-07T07:36:39.731Z,70.56
2019-06-07T07:39:18.804Z,70.28
2019-06-07T07:42:20.777Z,70.10
2019-06-07T07:44:47.173Z,69.46
2019-06-07T07:50:16.036Z,67.98
2019-06-07T07:53:06.125Z,66.60
2019-06-07T07:56:00.077Z,66.23
2019-06-07T07:58:38.915Z,65.82
2019-06-07T08:01:11.274Z,65.49
2019-06-07T08:03:54.928Z,64.44
2019-06-07T08:06:37.776Z,63.54
2019-06-07T08:09:09.102Z,63.94
2019-06-07T08:12:00.771Z,64.16
2019-06-07T08:15:03.551Z,63.84
2019-06-07T08:17:44.568Z,62.77
2019-06-07T08:21:14.983Z,63.60
2019-06-07T08:23:58.354Z,62.95
2019-06-07T08:26:39.258Z,61.86
2019-06-07T08:29:44.398Z,60.71
2019-06-07T08:32:12.341Z,60.92
2019-06-07T08:35:06.451Z,60.54
2019-06-07T08:38:15.218Z,61.09
2019-06-07T08:40:23.323Z,60.43
2019-06-07T08:43:20.735Z,59.62
2019-06-07T08:46:03.729Z,58.43
2019-06-07T08:48:39.877Z,57.53
2019-06-07T08:51:29.678Z,57.77
2019-06-07T08:54:22.947Z,57.36
2019-06-07T08:57:19.354Z,57.28
2019-06-07T08:59:45.858Z,58.44
2019-06-07T09:02:23.870Z,59.34
2019-06-07T09:05:06.104Z,58.79
2019-06-07T09:07:42.676Z,58.42
2019-06-07T09:10:32.817Z,57.47
2019-06-07T09:13:22.908Z,55.76
2019-06-07T09:16:12.815Z,54.09
2019-06-07T09:19:10.102Z,54.00
2019-06-07T09:21:40.215Z,53.07
2019-06-07T09:24:30.059Z,52.00
2019-06-07T09:27:19.878Z,52.10
2019-06-07T09:30:16.265Z,51.45
2019-06-07T09:32:42.755Z,51.31
2019-06-07T09:35:32.688Z,52.08
2019-06-07T09:38:26.111Z,51.89
2019-06-07T09:44:23.760Z,51.79
2019-06-07T09:47:22.427Z,51.33
2019-06-07T09:49:39.870Z,50.56
2019-06-07T09:52:29.726Z,50.25
2019-06-07T09:55:24.533Z,48.98
2019-06-07T09:58:47.670Z,49.53
2019-06-07T10:00:46.110Z,49.64
2019-06-07T10:03:47.699Z,50.12
2019-06-07T10:06:19.951Z,50.35
2019-06-07T10:11:53.617Z,49.74
2019-06-07T10:14:45.190Z,49.95
2019-06-07T10:17:35.048Z,49.78
2019-06-07T10:20:25.282Z,48.29
2019-06-07T10:23:15.091Z,47.86
2019-06-07T10:26:06.028Z,48.21
2019-06-07T10:28:43.194Z,48.02
2019-06-07T10:31:33.010Z,47.44
2019-06-07T10:34:22.990Z,47.61
2019-06-07T10:37:15.606Z,47.04
2019-06-07T10:40:05.355Z,45.82
2019-06-07T10:42:55.185Z,46.61
2019-06-07T10:45:44.946Z,46.47
2019-06-07T10:48:34.810Z,46.62
2019-06-07T10:51:24.556Z,46.89
2019-06-07T10:54:24.812Z,47.18
2019-06-07T10:57:09.363Z,47.08
2019-06-07T10:59:48.873Z,47.01
2019-06-07T11:02:38.864Z,46.39
2019-06-07T11:05:28.720Z,47.08
2019-06-07T11:08:37.574Z,47.26
2019-06-07T11:11:27.412Z,45.80
2019-06-07T11:14:17.223Z,45.57
2019-06-07T11:16:47.619Z,44.06
2019-06-07T11:19:37.418Z,43.99
2019-06-07T11:22:27.204Z,44.95
2019-06-07T11:25:16.973Z,45.27
2019-06-07T11:28:08.236Z,43.98
2019-06-07T11:30:58.509Z,43.26
2019-06-07T11:33:48.328Z,42.93
2019-06-07T11:36:38.221Z,44.04
2019-06-07T11:39:28.052Z,44.74
2019-06-07T11:41:58.466Z,43.66
2019-06-07T11:44:56.797Z,42.75
2019-06-07T11:47:33.056Z,42.35
2019-06-07T11:50:03.523Z,41.40
2019-06-07T11:52:33.949Z,41.23
2019-06-07T11:55:23.795Z,39.62
2019-06-07T11:58:17.289Z,38.95
2019-06-07T12:00:51.189Z,39.66
2019-06-07T12:03:40.998Z,39.39
2019-06-07T12:06:31.950Z,39.17
2019-06-07T12:09:21.761Z,38.83
2019-06-07T12:12:12.602Z,39.28
2019-06-07T12:14:49.367Z,41.22
2019-06-07T12:17:39.487Z,42.56
2019-06-07T12:20:29.366Z,42.18
2019-06-07T12:23:20.174Z,41.53
2019-06-07T12:26:02.889Z,41.07
2019-06-07T12:28:52.713Z,39.66
2019-06-07T12:31:42.730Z,40.87
2019-06-07T12:34:32.635Z,42.16
2019-06-07T12:37:32.772Z,41.82
2019-06-07T12:43:12.333Z,41.66
2019-06-07T12:46:02.645Z,40.80
2019-06-07T12:48:52.589Z,40.91
2019-06-07T12:51:42.442Z,39.63
2019-06-07T12:54:32.338Z,40.03
2019-06-07T12:57:22.528Z,40.19
2019-06-07T13:03:16.219Z,39.92
2019-06-07T13:06:06.274Z,41.79
2019-06-07T13:08:56.221Z,40.22
2019-06-07T13:11:46.060Z,37.17
2019-06-07T13:14:48.358Z,37.90
2019-06-07T13:17:20.383Z,37.57
2019-06-07T13:19:57.579Z,36.47
2019-06-07T13:22:47.436Z,35.26
2019-06-07T13:25:46.286Z,35.11
2019-06-07T13:28:20.744Z,34.91
2019-06-07T13:31:03.535Z,34.15
2019-06-07T13:33:54.326Z,33.08
2019-06-07T13:36:44.138Z,32.11
2019-06-07T13:39:52.989Z,32.20
2019-06-07T13:42:42.811Z,31.55
2019-06-07T13:45:32.672Z,30.81
2019-06-07T13:48:23.342Z,31.64
2019-06-07T13:51:06.116Z,32.13
2019-06-07T13:53:55.892Z,32.11
2019-06-07T13:57:01.672Z,31.17
2019-06-07T13:59:31.133Z,31.47
2019-06-07T14:02:21.187Z,32.47
2019-06-07T14:05:14.495Z,32.89
2019-06-07T14:08:04.341Z,32.81
2019-06-07T14:10:35.172Z,32.58
2019-06-07T14:13:05.890Z,33.44
2019-06-07T14:15:55.740Z,34.06
2019-06-07T14:18:45.600Z,35.06
2019-06-07T14:21:54.451Z,33.30
2019-06-07T14:24:44.256Z,31.30
2019-06-07T14:27:34.059Z,29.61
2019-06-07T14:30:24.068Z,27.29
2019-06-07T14:33:13.981Z,26.68
2019-06-07T14:36:03.940Z,25.49
2019-06-07T14:38:53.819Z,24.71
2019-06-07T14:41:43.839Z,25.02
2019-06-07T14:44:14.395Z,24.86
2019-06-07T14:47:04.284Z,25.34
2019-06-07T14:49:34.830Z,24.69
2019-06-07T14:52:05.402Z,23.85
2019-06-07T14:54:55.265Z,22.81
2019-06-07T14:57:45.123Z,22.03
2019-06-07T15:03:48.439Z,21.22
2019-06-07T15:06:38.945Z,21.42
2019-06-07T15:09:16.038Z,20.79
2019-06-07T15:12:05.939Z,20.66
2019-06-07T15:14:55.908Z,20.21
2019-06-07T15:17:45.738Z,20.20
2019-06-07T15:20:36.398Z,20.70
2019-06-07T15:23:19.374Z,21.16
2019-06-07T15:26:09.265Z,20.41
2019-06-07T15:28:59.079Z,20.01
2019-06-07T15:31:48.961Z,20.35
2019-06-07T15:34:38.816Z,19.67
2019-06-07T15:37:28.699Z,18.76
2019-06-07T15:43:01.916Z,18.39
2019-06-07T15:45:51.730Z,18.50
2019-06-07T15:48:41.565Z,19.02
2019-06-07T15:54:21.659Z,19.21
2019-06-07T15:59:59.041Z,18.74
2019-06-07T16:02:48.923Z,18.15
2019-06-07T16:05:19.752Z,18.66
2019-06-07T16:08:09.669Z,18.62
2019-06-07T16:10:59.525Z,19.05
2019-06-07T16:13:50.221Z,18.45
2019-06-07T16:16:41.386Z,18.80
2019-06-07T16:19:23.967Z,17.99
2019-06-07T16:22:13.816Z,18.22
2019-06-07T16:25:03.716Z,18.08
2019-06-07T16:27:53.883Z,18.41
2019-06-07T16:30:44.831Z,18.31
2019-06-07T16:33:26.792Z,18.28
2019-06-07T16:36:16.643Z,18.63
2019-06-07T16:42:12.232Z,18.53
2019-06-07T16:45:02.071Z,18.37
2019-06-07T16:47:51.894Z,18.87
2019-06-07T16:50:42.717Z,18.63
2019-06-07T16:53:24.678Z,18.86
2019-06-07T16:56:14.569Z,18.92
2019-06-07T16:58:46.433Z,19.44
2019-06-07T17:01:36.947Z,19.38
2019-06-07T17:04:19.608Z,19.51
2019-06-07T17:07:09.546Z,19.87
2019-06-07T17:09:40.241Z,20.02
2019-06-07T17:12:30.065Z,20.06
2019-06-07T17:18:24.257Z,20.69
2019-06-07T17:21:14.090Z,20.73
2019-06-07T17:24:04.033Z,21.49
2019-06-07T17:26:53.889Z,21.48
2019-06-07T17:29:44.169Z,21.76
2019-06-07T17:32:47.688Z,22.33
2019-06-07T17:35:11.606Z,22.28
2019-06-07T17:38:01.516Z,22.99
2019-06-07T17:40:51.373Z,23.52
2019-06-07T17:43:52.050Z,24.09
2019-06-07T17:46:32.786Z,24.42
2019-06-07T17:49:22.691Z,24.61
2019-06-07T17:52:31.469Z,25.32
2019-06-07T17:55:21.482Z,26.56
2019-06-07T17:58:11.338Z,27.41
2019-06-07T18:01:01.255Z,29.04
2019-06-07T18:03:51.349Z,31.06
2019-06-07T18:06:41.315Z,33.62
2019-06-07T18:09:31.251Z,36.01
2019-06-07T18:12:21.171Z,37.94
2019-06-07T18:18:16.621Z,41.37
2019-06-07T18:21:07.367Z,42.79
2019-06-07T18:23:58.597Z,44.57
2019-06-07T18:26:40.537Z,46.30
2019-06-07T18:29:30.380Z,47.76
2019-06-07T18:32:20.229Z,49.49
2019-06-07T18:34:50.837Z,50.76
2019-06-07T18:37:40.726Z,52.04
2019-06-07T18:43:16.654Z,54.66
2019-06-07T18:46:06.531Z,56.00
2019-06-07T18:48:56.445Z,56.97
2019-06-07T18:54:31.071Z,59.21
2019-06-07T18:57:01.636Z,60.15
2019-06-07T18:59:52.313Z,60.96
2019-06-07T19:02:34.542Z,61.79
2019-06-07T19:08:08.748Z,63.93
2019-06-07T19:10:58.965Z,64.76
2019-06-07T19:13:41.898Z,65.59
2019-06-07T19:16:31.750Z,66.13
2019-06-07T19:19:21.660Z,66.99
2019-06-07T19:22:11.469Z,67.44
2019-06-07T19:25:01.378Z,68.10
2019-06-07T19:27:52.589Z,68.64
2019-06-07T19:30:34.158Z,69.58
2019-06-07T19:33:24.161Z,69.80
2019-06-07T19:36:14.011Z,70.51
2019-06-07T19:39:05.167Z,71.17
2019-06-07T19:41:55.913Z,72.09
2019-06-07T19:44:32.825Z,72.76
2019-06-07T19:47:22.717Z,73.17
2019-06-07T19:50:12.695Z,73.73
2019-06-07T19:53:03.926Z,74.32
2019-06-07T19:55:45.687Z,74.83
2019-06-07T19:58:37.700Z,75.20
2019-06-07T20:01:27.568Z,75.50
2019-06-07T20:04:17.406Z,75.85
2019-06-07T20:07:07.422Z,76.30
2019-06-07T20:09:58.627Z,76.77
2019-06-07T20:12:40.417Z,77.59
2019-06-07T20:15:30.258Z,78.24
2019-06-07T20:18:20.113Z,78.81
2019-06-07T20:21:09.968Z,79.22
2019-06-07T20:24:11.228Z,79.40
2019-06-07T20:26:44.012Z,79.53
2019-06-07T20:29:33.865Z,79.89
2019-06-07T20:32:23.669Z,80.01
2019-06-07T20:35:13.488Z,80.61
2019-06-07T20:38:03.976Z,81.24
2019-06-07T20:40:46.716Z,81.79
2019-06-07T20:43:17.284Z,82.41
2019-06-07T20:46:08.224Z,82.83
2019-06-07T20:48:49.959Z,83.34
2019-06-07T20:51:39.831Z,83.58
2019-06-07T20:54:29.654Z,84.09
2019-06-07T20:57:19.536Z,84.21
2019-06-07T21:00:20.402Z,84.21
2019-06-07T21:02:47.513Z,84.58
2019-06-07T21:05:37.411Z,84.92
2019-06-07T21:08:27.704Z,85.28
2019-06-07T21:11:17.563Z,85.62
2019-06-07T21:14:08.218Z,86.08
2019-06-07T21:16:59.761Z,86.29
2019-06-07T21:19:36.746Z,86.47
2019-06-07T21:22:26.583Z,86.54
2019-06-07T21:25:16.424Z,86.48
2019-06-07T21:28:07.249Z,86.53
2019-06-07T21:30:49.621Z,86.69
2019-06-07T21:33:39.482Z,86.88
2019-06-07T21:36:29.297Z,86.99
2019-06-07T21:39:19.146Z,87.19
2019-06-07T21:42:10.236Z,87.40
2019-06-07T21:44:52.590Z,87.54
2019-06-07T21:47:42.507Z,87.60
2019-06-07T21:50:32.649Z,87.71
2019-06-07T21:53:22.504Z,87.70
2019-06-07T21:56:13.443Z,87.79
2019-06-07T21:58:56.945Z,87.83
2019-06-07T22:01:47.856Z,88.00
2019-06-07T22:04:56.736Z,88.17
2019-06-07T22:07:46.969Z,88.13
2019-06-07T22:10:36.851Z,88.21
2019-06-07T22:13:26.776Z,88.62
2019-06-07T22:16:28.530Z,88.67
2019-06-07T22:18:59.953Z,88.98
2019-06-07T22:22:02.276Z,89.36
2019-06-07T22:24:32.400Z,89.59
2019-06-07T22:27:22.226Z,89.98
2019-06-07T22:33:15.770Z,90.82
2019-06-07T22:36:06.821Z,90.76
2019-06-07T22:38:48.584Z,90.84
2019-06-07T22:41:38.481Z,91.00
2019-06-07T22:44:28.738Z,91.22
2019-06-07T22:47:18.670Z,91.40
2019-06-07T22:53:11.988Z,91.59
2019-06-07T22:58:58.147Z,91.84
2019-06-07T23:01:47.992Z,91.85
2019-06-07T23:04:37.879Z,91.68
2019-06-07T23:07:27.676Z,91.90
2019-06-07T23:09:58.133Z,92.26
2019-06-07T23:15:50.129Z,92.37
2019-06-07T23:18:41.144Z,92.01
2019-06-07T23:21:31.073Z,91.74
2019-06-07T23:24:01.529Z,91.80
2019-06-07T23:26:51.393Z,91.81
2019-06-07T23:29:21.960Z,91.80
2019-06-07T23:32:12.689Z,91.89
2019-06-07T23:34:55.193Z,91.79
2019-06-07T23:37:45.062Z,91.78
2019-06-07T23:40:34.901Z,91.64
2019-06-07T23:43:24.758Z,91.84
2019-06-07T23:46:15.304Z,92.19
2019-06-07T23:48:57.620Z,92.55
2019-06-07T23:51:47.478Z,92.73
2019-06-07T23:54:37.316Z,92.89
2019-06-07T23:57:27.159Z,92.90
